Aérodrome :
LOGIN :

S'inscrire | Disclaimer

   EN    FR    IT 

 










Légende :    VFR   VFR Marginal   IFR   IFR Intensif   IFR Très Intensif
Visi : 
Plafond : 
>= 8 km
>= 3000ft
5 à 8 km
1000 à 3000 ft
1500m à 5 km
500 à 1000 ft
800 à 1500m
200 à 500 ft
< 800m
< 200 ft
Symboles :   Orages  Brouillard  Fortes neiges  Fortes précipitations  Vent > 20 kt
SIGMETs :   Divers  Orages  Givrage  Turbulence  Onde Orograph.  Cendres Volcan.






- Altitude de l'aérodrome : 36 ft
- Code IATA : LTQ


LFAT - Le Touquet

DERNIER METAR :
  • 121130Z AUTO 31007KT 270V350 CAVOK 31/19 Q1013 TEMPO BKN070CB

METARs EXPIRÉS :
  • 121100Z AUTO 29006KT 210V350 CAVOK 31/17 Q1013 TEMPO VRB20G35KT 3000 TSRAGS BKN070CB
  • 121030Z AUTO VRB04KT CAVOK 31/17 Q1013 TEMPO VRB20G35KT 3000 TSRAGS BKN070CB
  • 121000Z AUTO 25004KT 190V320 CAVOK 31/17 Q1013 TEMPO BKN070CB
  • 120930Z AUTO 23004KT 180V280 CAVOK 30/18 Q1013 TEMPO BKN070CB
  • 120900Z AUTO 23007KT 180V260 CAVOK 29/19 Q1013 TEMPO BKN070CB

TAF TAF LFAT
Valide du 12 à 12h jusqu'au 12 à 21h UTC


121100Z 1212/1221 VRB04KT CAVOK
TEMPO 1213/1215 BKN070CB
TEMPO 1219/1221 VRB20G35KT 3000 TSRAGS BKN070CB
ATIS : +33 3 21 06 62 84



MET'MAP, la Météo Aéronautique d'un coup d'oeil ! - Copyright ORBIFLY Décembre 2007 - Disclaimer

ORBIFLY MET'MAP TEAM :

Programmation & Développement : Alexandra Zaïnal
Sur une idée originale de : Baudouin d'Aumeries
Assistance à la programmation : Marc-Olivier Méhu
Soutien technique & logistique : Manuel Goepfert

Contact : metmap@orbifly.com




SOURCES & CREDITS :

   NOAA